メインページ
METAR-TAF:

METAR-TAF

空港 :

Jackson County Airport (Reynolds Field)

ジャクソン, ミシガン州, アメリカ合衆国

緯度: 42-15-35N, 経度: 084-27-34W, 海抜: 305m

現時点の気象観測

当レポートは36分前の03:56(UTC)に作成
東/南東の風 6kt
気温 9°C
湿度 53%
気圧 1017 hPa
視程: 16.1km
晴天

METAR: KJXN 040356Z AUTO 12006KT 10SM CLR 09/00 A3004 RMK AO2 SLP175 T00890000

時間: 00:32 (04:32 UTC)

予報

当レポートは4時間52分前の23:40(UTC)に作成
予報は04日の 00時(UTC)から 04日の 24時(UTC)まで有効
変向風 3kt
視程: 10km
高度8000ftの雲は散在している
04日の 1600時(UTC)から
南/南西の風 6kt
視程: 10km
高度3500ftの曇り
近辺でにわか雨
04日の 1800時(UTC)から
西の風 7kt
視程: 10km
高度2100ftの曇り
04日の 1900時(UTC)から
西の風 8kt
視程: 9.7km
高度1800ftの曇り

TAF: KJXN 032340Z 0400/0424 VRB03KT P6SM SCT080 FM041600 21006KT P6SM VCSH OVC035 FM041800 26007KT P6SM OVC021 FM041900 28008KT 6SM BR OVC018

4,000以上の空港の気象観測と天気予報(METAR報とTAF報)

利用可能な観測所は地図上に黄色い丸と赤い丸で示す。

丸の上にカーソルを重ねると観測所名を参照できる。

次にクリックすると気象観測と天気予報を参照できる。

マップの切り替え:黒色「×」印の緑ボタンをクリックして拡大、「-」印の緑ボタンをクリックして縮小、緑色の三角印をクリックして隣りの地図に切り替え


METAR-TAF: